地図

経路データ

SID SEASON NUMBER BASIN SUBBASIN NAME ISO_TIME NATURE LAT LON WMO_WIND WMO_PRES WMO_AGENCY TRACK_TYPE DIST2LAND LANDFALL IFLAG USA_AGENCY USA_ATCF_ID USA_LAT USA_LON USA_RECORD USA_STATUS USA_WIND USA_PRES USA_SSHS USA_R34_NE USA_R34_SE USA_R34_SW USA_R34_NW USA_R50_NE USA_R50_SE USA_R50_SW USA_R50_NW USA_R64_NE USA_R64_SE USA_R64_SW USA_R64_NW USA_POCI USA_ROCI USA_RMW USA_EYE TOKYO_LAT TOKYO_LON TOKYO_GRADE TOKYO_WIND TOKYO_PRES TOKYO_R50_DIR TOKYO_R50_LONG TOKYO_R50_SHORT TOKYO_R30_DIR TOKYO_R30_LONG TOKYO_R30_SHORT TOKYO_LAND CMA_LAT CMA_LON CMA_CAT CMA_WIND CMA_PRES HKO_LAT HKO_LON HKO_CAT HKO_WIND HKO_PRES NEWDELHI_LAT NEWDELHI_LON NEWDELHI_GRADE NEWDELHI_WIND NEWDELHI_PRES NEWDELHI_CI NEWDELHI_DP NEWDELHI_POCI REUNION_LAT REUNION_LON REUNION_TYPE REUNION_WIND REUNION_PRES REUNION_TNUM REUNION_CI REUNION_RMW REUNION_R34_NE REUNION_R34_SE REUNION_R34_SW REUNION_R34_NW REUNION_R50_NE REUNION_R50_SE REUNION_R50_SW REUNION_R50_NW REUNION_R64_NE REUNION_R64_SE REUNION_R64_SW REUNION_R64_NW BOM_LAT BOM_LON BOM_TYPE BOM_WIND BOM_PRES BOM_TNUM BOM_CI BOM_RMW BOM_R34_NE BOM_R34_SE BOM_R34_SW BOM_R34_NW BOM_R50_NE BOM_R50_SE BOM_R50_SW BOM_R50_NW BOM_R64_NE BOM_R64_SE BOM_R64_SW BOM_R64_NW BOM_ROCI BOM_POCI BOM_EYE BOM_POS_METHOD BOM_PRES_METHOD NADI_LAT NADI_LON NADI_CAT NADI_WIND NADI_PRES WELLINGTON_LAT WELLINGTON_LON WELLINGTON_WIND WELLINGTON_PRES DS824_LAT DS824_LON DS824_STAGE DS824_WIND DS824_PRES TD9636_LAT TD9636_LON TD9636_STAGE TD9636_WIND TD9636_PRES TD9635_LAT TD9635_LON TD9635_WIND TD9635_PRES TD9635_ROCI NEUMANN_LAT NEUMANN_LON NEUMANN_CLASS NEUMANN_WIND NEUMANN_PRES MLC_LAT MLC_LON MLC_CLASS MLC_WIND MLC_PRES USA_GUST BOM_GUST BOM_GUST_PER REUNION_GUST REUNION_GUST_PER USA_SEAHGT USA_SEARAD_NE USA_SEARAD_SE USA_SEARAD_SW USA_SEARAD_NW STORM_SPEED STORM_DIR
1988072S08088 1988 15 SI MM GASITAO 1988-03-12 00:00:00 TS -7.60000 88.0000 main 1377 1377 O_________O_O_ jtwc_sh SH161988 -7.60000 88.0000 20 -1 -7.60000 88.0000 1 20 -7.60000 88.0000 TC 20 13 252
1988072S08088 1988 15 SI MM GASITAO 1988-03-12 03:00:00 TS -7.80028 87.3958 main 1445 1445 P_________P_P_ SH161988 -7.77271 87.3826 20 -1 -7.85543 87.4223 1 20 -7.77271 87.3826 TC 20 13 249
1988072S08088 1988 15 SI MM GASITAO 1988-03-12 06:00:00 TS -8.03946 86.8185 main 1514 1514 O_________P_O_ jtwc_sh SH161988 -8.00000 86.8000 20 -1 -8.11837 86.8554 1 20 -8.00000 86.8000 TC 20 12 244
1988072S08088 1988 15 SI MM GASITAO 1988-03-12 09:00:00 TS -8.34564 86.2886 main 1578 1578 P_________P_P_ SH161988 -8.31991 86.2775 20 -1 -8.39710 86.3108 1 20 -8.31991 86.2775 TC 20 12 237
1988072S08088 1988 15 SI MM GASITAO 1988-03-12 12:00:00 TS -8.70000 85.8000 main 1648 1648 O_________O_O_ jtwc_sh SH161988 -8.70000 85.8000 20 -1 -8.70000 85.8000 1 20 -8.70000 85.8000 TC 20 12 232
1988072S08088 1988 15 SI MM GASITAO 1988-03-12 15:00:00 TS -9.08678 85.3381 main 1718 1718 P_________P_P_ SH161988 -9.11491 85.3425 20 -1 -9.03050 85.3293 1 20 -9.11491 85.3425 TC 20 12 230
1988072S08088 1988 15 SI MM GASITAO 1988-03-12 18:00:00 TS -9.45730 84.8950 main 1779 1779 O_________P_O_ jtwc_sh SH161988 -9.50000 84.9000 20 -1 -9.37190 84.8849 1 20 -9.50000 84.9000 TC 20 11 233
1988072S08088 1988 15 SI MM GASITAO 1988-03-12 21:00:00 TS -9.74906 84.4542 main 1800 1800 P_________P_P_ SH161988 -9.77241 84.4573 20 -1 -9.70238 84.4481 1 20 -9.77241 84.4573 TC 20 10 238
1988072S08088 1988 15 SI MM GASITAO 1988-03-13 00:00:00 TS -10.0000 84.0000 main 1821 1818 O_________O_O_ jtwc_sh SH161988 -10.0000 84.0000 20 -1 -10.0000 84.0000 1 20 -10.0000 84.0000 TC 20 11 241
1988072S08088 1988 15 SI MM GASITAO 1988-03-13 03:00:00 TS -10.2580 83.5043 main 1843 1839 P_________P_P_ SH161988 -10.2650 83.5075 20 -1 -10.2441 83.4979 1 20 -10.2650 83.5075 TC 20 11 244
1988072S08088 1988 15 SI MM GASITAO 1988-03-13 06:00:00 TS -10.4842 82.9949 main 1856 1853 O_________P_O_ jtwc_sh SH161988 -10.5000 83.0000 20 -1 -10.4526 82.9848 1 20 -10.5000 83.0000 TC 20 11 249
1988072S08088 1988 15 SI MM GASITAO 1988-03-13 09:00:00 TS -10.6549 82.4780 main 1871 1868 P_________P_P_ SH161988 -10.6650 82.4774 20 -1 -10.6347 82.4792 1 20 -10.6650 82.4774 TC 20 10 252
1988072S08088 1988 15 SI MM GASITAO 1988-03-13 12:00:00 TS -10.8000 82.0000 main 1877 1876 O_________O_O_ jtwc_sh SH161988 -10.8000 82.0000 20 -1 -10.8000 82.0000 1 20 -10.8000 82.0000 TC 20 9 250
1988072S08088 1988 15 SI MM GASITAO 1988-03-13 15:00:00 TS -10.9545 81.6186 main 1896 1895 P_________P_P_ SH161988 -10.9498 81.6424 20 -1 -10.9640 81.5710 1 20 -10.9498 81.6424 TC 20 8 247
1988072S08088 1988 15 SI MM GASITAO 1988-03-13 18:00:00 TS -11.1048 81.2566 main 1906 1905 O_________P_O_ jtwc_sh SH161988 -11.1000 81.3000 20 -1 -11.1145 81.1696 1 20 -11.1000 81.3000 TC 20 8 249
1988072S08088 1988 15 SI MM GASITAO 1988-03-13 21:00:00 TS -11.2526 80.8278 main 1927 1927 P_________P_P_ SH161988 -11.2501 80.8500 20 -1 -11.2578 80.7835 1 20 -11.2501 80.8500 TC 20 9 251
1988072S08088 1988 15 SI MM GASITAO 1988-03-14 00:00:00 TS -11.4000 80.4000 main 1938 1938 O_________O_O_ jtwc_sh SH161988 -11.4000 80.4000 20 -1 -11.4000 80.4000 1 20 -11.4000 80.4000 TC 20 8 249
1988072S08088 1988 15 SI MM GASITAO 1988-03-14 03:00:00 TS -11.5484 80.0386 main 1950 1950 P_________P_P_ SH161988 -11.5498 80.0499 20 -1 -11.5456 80.0160 1 20 -11.5498 80.0499 TC 20 8 247
1988072S08088 1988 15 SI MM GASITAO 1988-03-14 06:00:00 TS -11.6973 79.6765 main 1974 1974 O_________P_O_ jtwc_sh SH161988 -11.7000 79.7000 20 -1 -11.6920 79.6296 1 20 -11.7000 79.7000 TC 20 8 249
1988072S08088 1988 15 SI MM GASITAO 1988-03-14 09:00:00 TS -11.8475 79.2428 main 1989 1989 P_________P_P_ SH161988 -11.8501 79.2500 20 -1 -11.8424 79.2284 1 20 -11.8501 79.2500 TC 20 9 251
1988072S08088 1988 15 SI MM GASITAO 1988-03-14 12:00:00 TS -12.0000 78.8000 main 2015 2015 O_________O_O_ jtwc_sh SH161988 -12.0000 78.8000 20 -1 -12.0000 78.8000 1 20 -12.0000 78.8000 TC 20 8 249
1988072S08088 1988 15 SI MM GASITAO 1988-03-14 15:00:00 TS -12.1478 78.4415 main 2031 2031 P_________P_P_ SH161988 -12.1422 78.4798 22 -1 -12.1591 78.3648 1 21 -12.1422 78.4798 TC 22 8 248
1988072S08088 1988 15 SI MM GASITAO 1988-03-14 18:00:00 TS -12.3089 78.0322 main 2059 2059 O_________P_O_ jtwc_sh SH161988 -12.3000 78.1000 25 -1 -12.3266 77.8967 1 22 -12.3000 78.1000 TC 25 10 250
1988072S08088 1988 15 SI MM GASITAO 1988-03-14 21:00:00 TS -12.4970 77.4618 main 2089 2089 P_________P_P_ SH161988 -12.4926 77.5025 25 -1 -12.5058 77.3803 1 23 -12.4926 77.5025 TC 25 13 252
1988072S08088 1988 15 SI MM GASITAO 1988-03-15 00:00:00 TS -12.7000 76.8000 main 2125 2125 O_________O_O_ jtwc_sh SH161988 -12.7000 76.8000 25 -1 -12.7000 76.8000 1 25 -12.7000 76.8000 TC 25 14 253
1988072S08088 1988 15 SI MM GASITAO 1988-03-15 03:00:00 TS -12.8971 76.1231 main 2116 2038 P_________P_P_ SH161988 -12.8923 76.1148 25 -1 -12.9067 76.1396 1 26 -12.8923 76.1148 TC 25 14 253
1988072S08088 1988 15 SI MM GASITAO 1988-03-15 06:00:00 TS -13.1092 75.4057 main 2038 1960 O_________P_O_ jtwc_sh SH161988 -13.1000 75.4000 25 -1 -13.1277 75.4172 1 27 -13.1000 75.4000 TC 25 15 253
1988072S08088 1988 15 SI MM GASITAO 1988-03-15 09:00:00 TS -13.3432 74.6537 main 1960 1868 P_________P_P_ SH161988 -13.3349 74.6499 27 -1 -13.3597 74.6612 1 28 -13.3349 74.6499 TC 27 16 251
1988072S08088 1988 15 SI MM GASITAO 1988-03-15 12:00:00 TS -13.6231 73.8923 36 991 reunion main 1868 1795 O____O____O_O_ jtwc_sh SH161988 -13.6000 73.9000 30 -1 -13.9000 73.8000 3 36 991 3.00000 3.00000 -13.6000 73.9000 1 30 -13.6000 73.9000 TC 30 15 248
1988072S08088 1988 15 SI MM GASITAO 1988-03-15 15:00:00 TS -13.9114 73.2161 main 1785 1717 P____P____P_P_ SH161988 -13.9072 73.2000 30 -1 -13.9601 73.4176 3 36 991 -13.8955 73.1476 1 31 -13.9072 73.2000 TC 30 14 247
1988072S08088 1988 15 SI MM GASITAO 1988-03-15 18:00:00 TS -14.1573 72.5731 36 991 reunion main 1712 1649 O____O____P_O_ jtwc_sh SH161988 -14.2000 72.5000 30 -1 -14.0000 73.0000 3 36 991 3.00000 3.00000 -14.1900 72.3991 1 32 -14.2000 72.5000 TC 30 13 251
1988072S08088 1988 15 SI MM GASITAO 1988-03-15 21:00:00 TS -14.3342 71.9171 main 1639 1576 P____P____P_P_ SH161988 -14.4450 71.7351 32 -1 -14.0074 72.5225 3 40 987 -14.4394 71.6759 1 33 -14.4450 71.7351 TC 32 13 257
1988072S08088 1988 15 SI MM GASITAO 1988-03-16 00:00:00 TS -14.4500 71.2500 44 984 reunion main 1576 1514 O____O____O_O_ jtwc_sh SH161988 -14.6000 71.0000 35 0 -14.0000 72.0000 3 44 984 3.50000 3.50000 -14.6000 71.0000 2 35 -14.6000 71.0000 TC 35 12 263
1988072S08088 1988 15 SI MM GASITAO 1988-03-16 03:00:00 TS -14.4786 70.6488 main 1504 1462 P____P____P_P_ SH161988 -14.6523 70.3624 35 0 -13.9923 71.4799 3 44 984 -14.6175 70.3904 2 36 -14.6523 70.3624 TC 35 11 271
1988072S08088 1988 15 SI MM GASITAO 1988-03-16 06:00:00 TS -14.4366 70.0828 44 984 reunion main 1462 1415 O____O____P_O_ jtwc_sh SH161988 -14.6000 69.8000 35 0 -14.0000 70.9000 3 44 984 3.50000 3.50000 -14.5464 69.8311 2 37 -14.6000 69.8000 TC 35 11 276
1988072S08088 1988 15 SI MM GASITAO 1988-03-16 09:00:00 TS -14.3554 69.5247 main 1405 1364 P____P____P_P_ SH161988 -14.4723 69.2849 37 0 -14.0500 70.2226 3 40 987 -14.4271 69.3064 2 38 -14.4723 69.2849 TC 37 11 280
1988072S08088 1988 15 SI MM GASITAO 1988-03-16 12:00:00 TS -14.2500 68.9750 36 991 reunion main 1369 1320 O____O____O_O_ jtwc_sh SH161988 -14.3000 68.8000 40 0 -14.1000 69.5000 3 36 991 3.00000 3.00000 -14.3000 68.8000 2 40 -14.3000 68.8000 TC 40 11 281
1988072S08088 1988 15 SI MM GASITAO 1988-03-16 15:00:00 TS -14.1367 68.4135 main 1320 1274 P____P____P_P_ SH161988 -14.1274 68.2999 42 0 -14.0999 68.7849 3 36 991 -14.1923 68.2691 2 42 -14.1274 68.2999 TC 42 11 281
1988072S08088 1988 15 SI MM GASITAO 1988-03-16 18:00:00 TS -14.0474 67.8636 36 991 reunion main 1280 1236 O____O____P_O_ jtwc_sh SH161988 -14.0000 67.8000 45 0 -14.1000 68.1000 3 36 991 3.00000 3.00000 -14.0897 67.7545 2 45 -14.0000 67.8000 TC 45 11 276
1988072S08088 1988 15 SI MM GASITAO 1988-03-16 21:00:00 TS -14.0193 67.3313 main 1227 1192 P____P____P_P_ SH161988 -13.9699 67.3001 47 0 -14.1199 67.4624 3 40 987 -14.0173 67.2627 2 47 -13.9699 67.3001 TC 47 10 270
1988072S08088 1988 15 SI MM GASITAO 1988-03-17 00:00:00 TS -14.0500 66.8250 44 984 reunion main 1183 1142 O____O____O_O_ jtwc_sh SH161988 -14.0000 66.8000 50 0 -14.2000 66.9000 3 44 984 3.50000 3.50000 -14.0000 66.8000 2 50 -14.0000 66.8000 TC 50 10 264
1988072S08088 1988 15 SI MM GASITAO 1988-03-17 03:00:00 TS -14.1258 66.3289 main 1133 1092 P____P____P_P_ SH161988 -14.0201 66.2700 52 0 -14.3998 66.4202 3 44 984 -14.0632 66.3555 2 53 -14.0201 66.2700 TC 52 9 258
1988072S08088 1988 15 SI MM GASITAO 1988-03-17 06:00:00 TS -14.2455 65.8851 44 984 reunion main 1092 1045 O____O____P_O_ jtwc_sh SH161988 -14.1000 65.8000 55 0 -14.6000 66.0000 3 44 984 3.50000 3.50000 -14.1822 65.9406 2 57 -14.1000 65.8000 TC 55 8 251
1988072S08088 1988 15 SI MM GASITAO 1988-03-17 09:00:00 TS -14.3943 65.5201 main 1045 1013 P____P____P_P_ SH161988 -14.2923 65.4701 60 0 -14.6574 65.5848 3 48 980 -14.3351 65.5553 2 61 -14.2923 65.4701 TC 60 7 245
1988072S08088 1988 15 SI MM GASITAO 1988-03-17 12:00:00 TS -14.5500 65.2000 52 976 reunion main 1013 973 O____O____O_O_ jtwc_sh SH161988 -14.5000 65.2000 65 1 -14.7000 65.2000 3 52 976 4.00000 4.00000 -14.5000 65.2000 3 65 -14.5000 65.2000 TC 65 7 246
1988072S08088 1988 15 SI MM GASITAO 1988-03-17 15:00:00 TS -14.6721 64.8706 main 973 941 P____P____P_P_ SH161988 -14.6000 64.8998 70 1 -14.8500 64.8276 3 52 976 -14.6386 64.8549 3 70 -14.6000 64.8998 TC 70 7 248
1988072S08088 1988 15 SI MM GASITAO 1988-03-17 18:00:00 TS -14.7962 64.5600 52 976 reunion main 941 910 O____O____P_O_ jtwc_sh SH161988 -14.7000 64.6000 75 1 -15.0000 64.5000 3 52 976 4.00000 4.00000 -14.7848 64.5399 3 75 -14.7000 64.6000 TC 75 6 245
1988072S08088 1988 15 SI MM GASITAO 1988-03-17 21:00:00 TS -14.9434 64.2743 main 910 871 P____P____P_P_ SH161988 -14.8850 64.2925 80 1 -15.0648 64.2574 3 52 976 -14.9386 64.2549 3 80 -14.8850 64.2925 TC 80 6 241
1988072S08088 1988 15 SI MM GASITAO 1988-03-18 00:00:00 TS -15.1000 64.0000 52 976 reunion main 871 832 O____O____O_O_ jtwc_sh SH161988 -15.1000 64.0000 85 2 -15.1000 64.0000 3 52 976 4.00000 4.00000 -15.1000 64.0000 4 85 -15.1000 64.0000 TC 85 6 240
1988072S08088 1988 15 SI MM GASITAO 1988-03-18 03:00:00 TS -15.2621 63.6949 main 832 800 P____P____P_P_ SH161988 -15.3075 63.7275 92 2 -15.1577 63.5775 3 57 971 -15.2758 63.7469 4 92 -15.3075 63.7275 TC 95 6 240
1988072S08088 1988 15 SI MM GASITAO 1988-03-18 06:00:00 TS -15.4144 63.4313 62 966 reunion main 800 785 O____O____P_O_ jtwc_sh SH161988 -15.5000 63.5000 100 3 -15.2000 63.2000 3 62 966 4.50000 4.50000 -15.4574 63.5251 4 100 -15.5000 63.5000 TC 105 5 236
1988072S08088 1988 15 SI MM GASITAO 1988-03-18 09:00:00 TS -15.5356 63.2701 main 785 769 P____P____P_P_ SH161988 -15.6575 63.3274 107 3 -15.1923 63.0849 3 67 960 -15.6353 63.3407 4 107 -15.6575 63.3274 TC 110 4 229
1988072S08088 1988 15 SI MM GASITAO 1988-03-18 12:00:00 TS -15.6500 63.1500 72 954 reunion main 769 738 O____O____O_O_ jtwc_sh SH161988 -15.8000 63.2000 115 4 -15.2000 63.0000 4 72 954 5.00000 5.00000 -15.8000 63.2000 4 115 -15.8000 63.2000 TC 115 4 229
1988072S08088 1988 15 SI MM GASITAO 1988-03-18 15:00:00 TS -15.7823 62.9706 main 738 715 P____P____P_P_ SH161988 -15.9575 63.0775 120 4 -15.2627 62.6776 4 72 954 -15.9513 63.0500 4 118 -15.9575 63.0775 TC 120 4 228
1988072S08088 1988 15 SI MM GASITAO 1988-03-18 18:00:00 TS -15.9218 62.8375 72 954 reunion main 715 700 O____O____P_O_ jtwc_sh SH161988 -16.1000 63.0000 125 4 -15.4000 62.4000 4 72 954 5.00000 5.00000 -16.0871 62.9500 4 122 -16.1000 63.0000 TC 125 3 209
1988072S08088 1988 15 SI MM GASITAO 1988-03-18 21:00:00 TS -16.0729 62.8044 main 700 693 P____P____P_P_ SH161988 -16.2150 62.9625 127 4 -15.6574 62.3674 4 77 947 -16.2044 62.9250 4 126 -16.2150 62.9625 TC 127 3 174
1988072S08088 1988 15 SI MM GASITAO 1988-03-19 00:00:00 TS -16.2000 62.8750 82 941 reunion main 701 701 O____O____O_O_ jtwc_sh SH161988 -16.3000 63.0000 130 4 -15.9000 62.5000 4 82 941 5.50000 5.50000 -16.3000 63.0000 4 130 -16.3000 63.0000 TC 130 3 136
1988072S08088 1988 15 SI MM GASITAO 1988-03-19 03:00:00 TS -16.2627 62.9996 main 702 702 P____P____P_P_ SH161988 -16.3574 63.0825 130 4 -15.9649 62.6827 4 82 941 -16.3711 63.1507 4 128 -16.3574 63.0825 TC 130 4 106
1988072S08088 1988 15 SI MM GASITAO 1988-03-19 06:00:00 TS -16.3054 63.2513 82 941 reunion main 728 728 O____O____P_O_ jtwc_sh SH161988 -16.4000 63.3000 130 4 -16.0000 63.0000 4 82 941 5.50000 5.50000 -16.4218 63.4052 4 127 -16.4000 63.3000 TC 130 6 100
1988072S08088 1988 15 SI MM GASITAO 1988-03-19 09:00:00 TS -16.3741 63.6387 main 747 747 P____P____P_P_ SH161988 -16.4575 63.6899 127 4 -16.1197 63.4177 4 77 947 -16.4615 63.7570 4 126 -16.4575 63.6899 TC 127 9 100
1988072S08088 1988 15 SI MM GASITAO 1988-03-19 12:00:00 TS -16.4500 64.1500 72 954 reunion main 801 786 O____O____O_O_ jtwc_sh SH161988 -16.5000 64.2000 125 4 -16.3000 64.0000 4 72 954 5.00000 5.00000 -16.5000 64.2000 4 125 -16.5000 64.2000 TC 125 11 98
1988072S08088 1988 15 SI MM GASITAO 1988-03-19 15:00:00 TS -16.5131 64.7322 main 841 841 P____P____P_P_ SH161988 -16.4923 64.7202 122 4 -16.5578 64.7696 4 72 954 -16.5099 64.7188 4 122 -16.4923 64.7202 TC 122 12 96
1988072S08088 1988 15 SI MM GASITAO 1988-03-19 18:00:00 TS -16.5814 65.3798 72 954 reunion main 901 901 O____O____P_O_ jtwc_sh SH161988 -16.5000 65.3000 120 4 -16.8000 65.6000 4 72 954 5.00000 5.00000 -16.5257 65.3190 4 120 -16.5000 65.3000 TC 120 13 97
1988072S08088 1988 15 SI MM GASITAO 1988-03-19 21:00:00 TS -16.6621 66.0456 main 953 953 P____P____P_P_ SH161988 -16.5776 65.9500 117 4 -16.9147 66.3229 4 72 954 -16.5786 65.9597 4 117 -16.5776 65.9500 TC 117 13 99
1988072S08088 1988 15 SI MM GASITAO 1988-03-20 00:00:00 TS -16.7750 66.7000 72 954 reunion main 1016 1016 O____O____O_O_ jtwc_sh SH161988 -16.7000 66.6000 115 4 -17.0000 67.0000 4 72 954 5.00000 5.00000 -16.7000 66.6000 4 115 -16.7000 66.6000 TC 115 12 101
1988072S08088 1988 15 SI MM GASITAO 1988-03-20 03:00:00 TS -16.8995 67.2979 main 1070 1070 P____P____P_P_ SH161988 -16.7972 67.1580 112 3 -17.1123 67.6653 4 77 947 -16.8915 67.2104 4 112 -16.7972 67.1580 TC 112 12 107
1988072S08088 1988 15 SI MM GASITAO 1988-03-20 06:00:00 TS -17.1144 67.8775 82 941 reunion main 1122 1122 O____O____P_O_ jtwc_sh SH161988 -17.0000 67.7000 110 3 -17.3000 68.3000 4 82 941 5.50000 5.50000 -17.1576 67.8099 4 110 -17.0000 67.7000 TC 110 13 117
1988072S08088 1988 15 SI MM GASITAO 1988-03-20 09:00:00 TS -17.4756 68.4810 main 1168 1168 P____P____P_P_ SH161988 -17.3900 68.3074 107 3 -17.6274 68.9298 4 87 934 -17.4948 68.3795 4 107 -17.3900 68.3074 TC 107 14 126
1988072S08088 1988 15 SI MM GASITAO 1988-03-20 12:00:00 TS -17.9250 69.0500 92 927 reunion main 1217 1206 O____O____O_O_ jtwc_sh SH161988 -17.9000 68.9000 105 3 -18.0000 69.5000 4 92 927 6.00000 6.00000 -17.9000 68.9000 4 105 -17.9000 68.9000 TC 105 14 131
1988072S08088 1988 15 SI MM GASITAO 1988-03-20 15:00:00 TS -18.3855 69.5671 main 1255 1253 P____P____P_P_ SH161988 -18.4424 69.4450 102 3 -18.2848 69.9805 4 87 934 -18.3722 69.3982 4 102 -18.4424 69.4450 TC 102 13 136
1988072S08088 1988 15 SI MM GASITAO 1988-03-20 18:00:00 TS -18.8762 70.0103 82 941 reunion main 1287 1287 O____O____P_O_ jtwc_sh SH161988 -19.0000 69.9000 100 3 -18.6000 70.4000 4 82 941 5.50000 5.50000 -18.9047 69.8412 4 100 -19.0000 69.9000 TC 100 13 141
1988072S08088 1988 15 SI MM GASITAO 1988-03-20 21:00:00 TS -19.3643 70.3929 main 1321 1321 P____P____P_P_ SH161988 -19.5073 70.2528 97 3 -18.9826 70.8524 4 77 947 -19.4599 70.2137 4 97 -19.5073 70.2528 TC 97 12 148
1988072S08088 1988 15 SI MM GASITAO 1988-03-21 00:00:00 TS -19.8750 70.6750 72 954 reunion main 1347 1346 O____O____O_O_ jtwc_sh SH161988 -20.0000 70.5000 95 2 -19.5000 71.2000 4 72 954 5.00000 5.00000 -20.0000 70.5000 4 95 -20.0000 70.5000 TC 95 12 158
1988072S08088 1988 15 SI MM GASITAO 1988-03-21 03:00:00 TS -20.4478 70.8663 main 1365 1364 P____P____P_P_ SH161988 -20.5149 70.6876 92 2 -20.2498 71.3825 4 67 960 -20.5116 70.7076 4 91 -20.5149 70.6876 TC 92 12 167
1988072S08088 1988 15 SI MM GASITAO 1988-03-21 06:00:00 TS -20.9992 70.9572 62 966 reunion main 1375 1375 O____O____P_O_ jtwc_sh SH161988 -21.0000 70.8000 90 2 -21.0000 71.4000 3 62 966 4.50000 4.50000 -20.9968 70.8288 4 87 -21.0000 70.8000 TC 90 10 174
1988072S08088 1988 15 SI MM GASITAO 1988-03-21 09:00:00 TS -21.4453 70.9815 main 1376 1376 P____P____P_P_ SH161988 -21.4300 70.8801 85 2 -21.4875 71.2803 3 57 971 -21.4336 70.8854 4 83 -21.4300 70.8801 TC 85 8 182
1988072S08088 1988 15 SI MM GASITAO 1988-03-21 12:00:00 TS -21.8250 70.9500 52 976 reunion main 1379 1369 O____O____O_O_ jtwc_sh SH161988 -21.8000 70.9000 80 1 -21.9000 71.1000 3 52 976 4.00000 4.00000 -21.8000 70.9000 4 80 -21.8000 70.9000 TC 80 7 187
1988072S08088 1988 15 SI MM GASITAO 1988-03-21 15:00:00 TS -22.1786 70.8922 main 1373 1365 P____P____P_P_ SH161988 -22.1450 70.8576 77 1 -22.3850 70.9701 3 48 980 -22.0393 70.8833 4 77 -22.1450 70.8576 TC 77 7 189
1988072S08088 1988 15 SI MM GASITAO 1988-03-21 18:00:00 TS -22.4787 70.8340 44 984 reunion main 1367 1367 O____O____P_O_ jtwc_sh SH161988 -22.4000 70.8000 75 1 -22.9000 70.9000 3 44 984 3.50000 3.50000 -22.2149 70.8362 4 75 -22.4000 70.8000 TC 75 6 188
1988072S08088 1988 15 SI MM GASITAO 1988-03-21 21:00:00 TS -22.7250 70.8027 main 1370 1370 P____P____P_P_ SH161988 -22.4925 70.7776 72 1 -23.5322 70.8599 3 44 984 -22.3830 70.7959 4 72 -22.4925 70.7776 TC 72 5 178
1988072S08088 1988 15 SI MM GASITAO 1988-03-22 00:00:00 MX -22.9500 70.8500 44 984 reunion main 1384 1384 O____O____O_O_ jtwc_sh SH161988 -22.6000 70.8000 70 1 -24.0000 71.0000 5 44 984 3.50000 3.50000 -22.6000 70.8000 4 70 -22.6000 70.8000 TC 70 5 154
1988072S08088 1988 15 SI MM GASITAO 1988-03-22 03:00:00 MX -23.1598 71.0282 main 1400 1400 P____P____P_P_ SH161988 -22.8975 70.8701 65 1 -23.9508 71.5084 5 44 984 -22.8936 70.8643 4 65 -22.8975 70.8701 TC 65 6 143
1988072S08088 1988 15 SI MM GASITAO 1988-03-22 06:00:00 MX -23.4374 71.2455 44 984 reunion main 1424 1424 O____O____P_O_ jtwc_sh SH161988 -23.3000 71.0000 60 0 -23.9000 72.0000 5 44 984 3.50000 3.50000 -23.2497 70.9822 4 60 -23.3000 71.0000 TC 60 8 155
1988072S08088 1988 15 SI MM GASITAO 1988-03-22 09:00:00 MX -23.8589 71.3826 main 1456 1456 P____P____P_P_ SH161988 -23.6974 71.1556 55 0 -24.3598 72.0604 5 44 984 -23.6809 71.1588 4 55 -23.6974 71.1556 TC 55 10 164
1988072S08088 1988 15 SI MM GASITAO 1988-03-22 12:00:00 MX -24.4000 71.5500 44 984 reunion main 1490 1480 O____O____O_O_ jtwc_sh SH161988 -24.2000 71.4000 50 0 -25.0000 72.0000 5 44 984 3.50000 3.50000 -24.2000 71.4000 2 50 -24.2000 71.4000 TC 50 12 161
1988072S08088 1988 15 SI MM GASITAO 1988-03-22 15:00:00 MX -25.0253 71.8288 main 1528 1528 P____P____P_P_ SH161988 -24.8627 71.7771 47 0 -25.5574 72.0479 5 40 987 -24.8183 71.7131 2 47 -24.8627 71.7771 TC 47 14 157
1988072S08088 1988 15 SI MM GASITAO 1988-03-22 18:00:00 MX -25.7046 72.1721 36 991 reunion main 1590 1590 O____O____P_O_ jtwc_sh SH161988 -25.6000 72.2000 45 0 -26.1000 72.2000 5 36 991 3.00000 3.00000 -25.5182 72.0883 2 45 -25.6000 72.2000 TC 45 15 154
1988072S08088 1988 15 SI MM GASITAO 1988-03-22 21:00:00 MX -26.3647 72.5382 main 1645 1645 P____P____P_P_ SH161988 -26.2999 72.5580 42 0 -26.6003 72.5420 5 36 991 -26.2590 72.4947 2 42 -26.2999 72.5580 TC 42 15 154
1988072S08088 1988 15 SI MM GASITAO 1988-03-23 00:00:00 MX -27.0250 72.9000 36 991 reunion main 1706 1706 O____O____O_O_ jtwc_sh SH161988 -27.0000 72.9000 40 0 -27.1000 72.9000 5 36 991 3.00000 3.00000 -27.0000 72.9000 2 40 -27.0000 72.9000 TC 40 14 157
1988072S08088 1988 15 SI MM GASITAO 1988-03-23 03:00:00 MX -27.6806 73.1774 main 1764 1764 P____P____P_P_ SH161988 -27.7074 73.2504 37 0 -27.6122 73.0439 5 36 991 -27.6955 73.1651 2 37 -27.7074 73.2504 TC 37 14 159
1988072S08088 1988 15 SI MM GASITAO 1988-03-23 06:00:00 MX -28.3457 73.4589 36 991 reunion main 1818 1818 O____O____P_O_ jtwc_sh SH161988 -28.4000 73.6000 35 0 -28.2000 73.2000 5 36 991 3.00000 3.00000 -28.3826 73.4358 2 35 -28.4000 73.6000 TC 35 15 158
1988072S08088 1988 15 SI MM GASITAO 1988-03-23 09:00:00 MX -29.0314 73.7961 main 1878 1878 P____P____P_P_ SH161988 -29.0646 73.9210 32 -1 -28.9426 73.5545 5 32 994 -29.0537 73.7881 2 32 -29.0646 73.9210 TC 32 15 154
1988072S08088 1988 15 SI MM GASITAO 1988-03-23 12:00:00 MX -29.7000 74.2250 28 997 reunion main 1949 1949 O____O____O_O_ jtwc_sh SH161988 -29.7000 74.3000 30 -1 -29.7000 74.0000 5 28 997 2.50000 2.50000 -29.7000 74.3000 1 30 -29.7000 74.3000 TC 30 15 148
1988072S08088 1988 15 SI MM GASITAO 1988-03-23 15:00:00 MX -30.3213 74.7247 main 2023 2023 P____P____P_P_ SH161988 -30.3128 74.7023 27 -1 -30.3451 74.4650 5 32 -30.3143 75.0290 1 28 -30.3128 74.7023 TC 27 16 140
1988072S08088 1988 15 SI MM GASITAO 1988-03-23 18:00:00 MX -30.8997 75.3715 36 reunion main 2063 2022 O____O____P_O_ jtwc_sh SH161988 -30.9000 75.4000 25 -1 -30.9000 74.9000 5 36 9.90000 -30.8987 75.9431 1 27 -30.9000 75.4000 TC 25 16 133
1988072S08088 1988 15 SI MM GASITAO 1988-03-23 21:00:00 MX -31.3829 76.0699 main 2024 1990 P____P____P_P_ SH161988 -31.4628 76.5953 25 -1 -31.2653 75.0864 5 36 -31.4586 76.9860 1 26 -31.4628 76.5953 TC 25 15 133
1988072S08088 1988 15 SI MM GASITAO 1988-03-24 00:00:00 TS -31.8857 76.6143 36 reunion main 1980 1871 O____O____O_O_ jtwc_sh SH161988 -32.0000 78.1000 25 -1 -31.8000 75.5000 6 36 9.90000 -32.0000 78.1000 1 25 -32.0000 78.1000 TC 25 16 163
1988072S08088 1988 15 SI MM GASITAO 1988-03-24 03:00:00 TS -32.9530 76.6354 main 1860 1783 _____P________ SH161988 -1 -32.9530 76.6354 6 36 1 TC 25 152
1988072S08088 1988 15 SI MM GASITAO 1988-03-24 06:00:00 TS -34.1000 78.0000 36 reunion main 1778 1742 _____O________ -1 -34.1000 78.0000 6 36 9.90000 1 26 132
1988072S08088 1988 15 SI MM GASITAO 1988-03-24 09:00:00 TS -34.7106 78.9592 main 1745 1734 _____P________ -1 -34.7106 78.9592 6 36 1 19 119
1988072S08088 1988 15 SI MM GASITAO 1988-03-24 12:00:00 TS -35.0000 80.0000 36 reunion main 1749 1749 _____O________ -1 -35.0000 80.0000 6 36 9.90000 21 101
1988072S08088 1988 15 SI MM GASITAO 1988-03-24 15:00:00 TS -35.1173 81.4474 main 1792 1792 _____P________ -1 -35.1173 81.4474 6 36 25 92
1988072S08088 1988 15 SI MM GASITAO 1988-03-24 18:00:00 TS -35.1000 83.1000 main 1864 1864 _____O________ -1 -35.1000 83.1000 6 36 9.90000 27 90
1988072S08088 1988 15 SI MM GASITAO 1988-03-24 21:00:00 TS -35.1132 84.7701 main 1944 1944 _____P________ -1 -35.1132 84.7701 6 36 28 90
1988072S08088 1988 15 SI MM GASITAO 1988-03-25 00:00:00 TS -35.1000 86.5000 main 2029 2029 _____O________ -1 -35.1000 86.5000 6 36 9.90000 28 89
1988072S08088 1988 15 SI MM GASITAO 1988-03-25 03:00:00 TS -35.0623 88.2479 main 2120 2120 _____P________ -1 -35.0623 88.2479 6 36 29 88
1988072S08088 1988 15 SI WA GASITAO 1988-03-25 06:00:00 TS -35.0000 90.0000 main 2231 _____O________ -1 -35.0000 90.0000 6 36 9.90000 29 88

IBTrACS Databaseについて

本データベースは、米国NOAAが公開する1842年以降の世界の熱帯低気圧のベストトラックデータアーカイブInternational Best Track Archive for Climate Stewardship (IBTrACS)を、ウェブで閲覧しやすい形式に変換したものです。

最終更新日:2021-10-08